Terminal Aerodrome Forecast
Issued by NWS

Home | Current Version | Previous Version | Text Only | Print | Product List | Glossary On
Versions: 1 2 3 4 5 6 7 8 9 10 11 12 13 14
789
FTUS41 KLWX 261124
TAFMTN
TAF
KMTN 261124Z 2612/2712 32005KT P6SM SCT150
     FM261600 31005KT P6SM BKN050
     FM262100 25006KT P6SM BKN050
     FM270200 VRB03KT P6SM SCT050
     FM270500 VRB03KT P6SM BKN070=

USA.gov is the U.S. government's official web portal to all federal, state and local government web resources and services.